Terminal Aerodrome Forecast
Issued by NWS Cleveland, OH

Home | Current Version | Previous Version | Text Only | Print | Product List | Glossary On
Versions: 1 2 3 4 5 6 7 8 9 10 11 12 13 14
000
FTUS41 KCLE 131100
TAFMFD
TAF
KMFD 131137Z 1312/1412 21010G18KT P6SM VCSH SCT060 BKN090
      TEMPO 1313/1316 23012G20KT 4SM -SHRA BR SCT025 OVC035
     FM131700 23012G20KT P6SM VCTS BKN035CB
     FM132300 24009KT P6SM BKN035
     FM140200 22006KT P6SM SCT035
     FM140700 21004KT 4SM BR SCT200=

USA.gov is the U.S. government's official web portal to all federal, state and local government web resources and services.